Time;durP1;ratioP1;P1;durP2;ratioP2;P2;SDS_P1;SDS_P2;PMS_P1;PMS_P2;Temp;Humidity;BMP_temperature;BMP_pressure;BME280_temperature;BME280_humidity;BME280_pressure;Samples;Min_cycle;Max_cycle;Signal;HPM_P1;HPM_P2
2022/03/09 00:01:58;;;;;;;27.92;14.43;;;;;;;;;;5000900;28;20473;-69
2022/03/09 00:04:25;;;;;;;24.65;13.38;;;;;;;;;;5002845;28;20033;-69
2022/03/09 00:06:50;;;;;;;23.05;13.52;;;;;;;;;;5039631;28;20068;-69
2022/03/09 00:09:16;;;;;;;23.70;13.20;;;;;;;;;;5007634;28;20067;-70
2022/03/09 00:11:42;;;;;;;23.05;12.75;;;;;;;;;;5025608;28;20033;-70
2022/03/09 00:14:07;;;;;;;27.20;14.45;;;;;;;;;;5025218;28;20037;-70
2022/03/09 00:16:32;;;;;;;33.58;16.55;;;;;;;;;;5025400;28;20427;-70
2022/03/09 00:18:57;;;;;;;38.88;18.63;;;;;;;;;;5024048;28;20052;-68
2022/03/09 00:21:23;;;;;;;33.65;15.88;;;;;;;;;;5004501;28;20029;-69
2022/03/09 00:23:48;;;;;;;30.75;14.75;;;;;;;;;;5024959;28;20122;-69
2022/03/09 00:26:14;;;;;;;24.33;12.82;;;;;;;;;;5007708;28;20029;-68
2022/03/09 00:28:39;;;;;;;22.58;12.18;;;;;;;;;;5024578;28;20730;-68
2022/03/09 00:31:04;;;;;;;24.52;13.15;;;;;;;;;;5025109;28;20032;-68
2022/03/09 00:33:29;;;;;;;30.27;14.65;;;;;;;;;;5023763;28;20032;-69
2022/03/09 00:35:55;;;;;;;30.23;15.10;;;;;;;;;;5022898;28;20169;-68
2022/03/09 00:38:21;;;;;;;29.98;14.43;;;;;;;;;;5023937;28;20660;-68
2022/03/09 00:40:48;;;;;;;27.17;15.10;;;;;;;;;;5023636;28;20029;-68
2022/03/09 00:43:16;;;;;;;26.35;14.20;;;;;;;;;;5025860;28;20041;-68
2022/03/09 00:45:42;;;;;;;28.35;13.40;;;;;;;;;;5023492;28;20025;-68
2022/03/09 00:48:07;;;;;;;25.65;13.48;;;;;;;;;;5025373;28;20056;-69
2022/03/09 00:50:33;;;;;;;25.58;13.43;;;;;;;;;;5006980;28;20143;-70
2022/03/09 00:52:58;;;;;;;26.90;14.27;;;;;;;;;;5025305;28;21902;-69
2022/03/09 00:55:26;;;;;;;23.77;13.68;;;;;;;;;;5024823;28;20049;-69
2022/03/09 00:57:51;;;;;;;27.65;14.18;;;;;;;;;;5023440;28;20973;-71
2022/03/09 01:00:19;;;;;;;26.98;14.45;;;;;;;;;;5006425;28;20134;-69
2022/03/09 01:02:45;;;;;;;28.30;14.95;;;;;;;;;;5005584;28;20135;-69
2022/03/09 01:05:14;;;;;;;25.23;13.55;;;;;;;;;;5039242;28;20142;-69
2022/03/09 01:07:39;;;;;;;25.02;12.70;;;;;;;;;;5024022;28;20432;-69
2022/03/09 01:10:05;;;;;;;25.63;13.45;;;;;;;;;;5023322;28;20033;-71
2022/03/09 01:12:31;;;;;;;32.67;13.25;;;;;;;;;;5025566;28;20040;-69
2022/03/09 01:14:56;;;;;;;26.30;12.80;;;;;;;;;;5037980;28;20025;-69
2022/03/09 01:17:21;;;;;;;22.40;11.43;;;;;;;;;;5023690;28;20151;-71
2022/03/09 01:19:47;;;;;;;26.60;13.48;;;;;;;;;;5024426;28;20274;-70
2022/03/09 01:22:12;;;;;;;27.67;14.93;;;;;;;;;;5005578;28;20028;-70
2022/03/09 01:24:40;;;;;;;34.42;16.30;;;;;;;;;;4989275;28;20028;-70
2022/03/09 01:27:06;;;;;;;32.65;16.00;;;;;;;;;;5023479;28;20207;-70
2022/03/09 01:29:31;;;;;;;31.83;15.15;;;;;;;;;;5023906;28;21901;-70
2022/03/09 01:31:57;;;;;;;30.90;14.82;;;;;;;;;;5023817;28;20075;-70
2022/03/09 01:34:22;;;;;;;20.17;12.48;;;;;;;;;;5023674;28;20037;-69
2022/03/09 01:36:48;;;;;;;23.15;12.95;;;;;;;;;;5023172;28;20508;-69
2022/03/09 01:39:13;;;;;;;23.70;12.95;;;;;;;;;;5023259;28;20115;-70
2022/03/09 01:41:38;;;;;;;21.30;12.55;;;;;;;;;;5006502;28;20025;-70
2022/03/09 01:44:08;;;;;;;20.73;12.20;;;;;;;;;;5024545;28;20020;-69
2022/03/09 01:46:33;;;;;;;20.35;11.13;;;;;;;;;;5005112;28;20056;-70
2022/03/09 01:48:59;;;;;;;19.00;11.77;;;;;;;;;;5022752;28;20412;-70
2022/03/09 01:51:24;;;;;;;20.35;12.80;;;;;;;;;;5023981;28;20048;-70
2022/03/09 01:53:50;;;;;;;21.02;11.85;;;;;;;;;;5023291;28;20064;-70
2022/03/09 01:56:15;;;;;;;20.75;12.13;;;;;;;;;;5022950;28;20426;-69
2022/03/09 01:58:40;;;;;;;20.83;11.90;;;;;;;;;;5023181;28;20419;-69
2022/03/09 02:01:06;;;;;;;31.67;14.18;;;;;;;;;;5022933;28;20049;-69
2022/03/09 02:03:31;;;;;;;22.80;13.30;;;;;;;;;;5005135;28;20033;-70
2022/03/09 02:05:58;;;;;;;22.75;13.05;;;;;;;;;;5004927;28;20088;-69
2022/03/09 02:11:10;;;;;;;21.02;12.18;;;;;;;;;;5022893;28;20106;-69
2022/03/09 02:13:36;;;;;;;20.88;11.77;;;;;;;;;;5035888;28;20529;-69
2022/03/09 02:16:02;;;;;;;18.48;11.68;;;;;;;;;;5023340;28;21892;-70
2022/03/09 02:18:27;;;;;;;19.95;11.77;;;;;;;;;;4989321;28;20036;-69
2022/03/09 02:20:53;;;;;;;30.30;14.50;;;;;;;;;;4992364;28;20480;-69
2022/03/09 02:23:19;;;;;;;27.77;13.85;;;;;;;;;;5022633;28;20108;-69
2022/03/09 02:25:44;;;;;;;23.48;13.52;;;;;;;;;;5024116;28;20044;-69
2022/03/09 02:28:11;;;;;;;24.60;12.88;;;;;;;;;;5021605;28;20067;-69
2022/03/09 02:30:37;;;;;;;25.00;12.57;;;;;;;;;;5023295;28;20032;-69
2022/03/09 02:33:03;;;;;;;23.80;12.70;;;;;;;;;;5036964;28;20454;-69
2022/03/09 02:35:28;;;;;;;26.40;14.02;;;;;;;;;;5001576;28;20404;-69
2022/03/09 02:37:54;;;;;;;25.63;14.60;;;;;;;;;;5021858;28;20033;-69
2022/03/09 02:40:19;;;;;;;30.85;13.75;;;;;;;;;;5022545;28;20139;-69
2022/03/09 02:42:45;;;;;;;30.77;13.63;;;;;;;;;;5036289;28;20076;-68
2022/03/09 02:45:13;;;;;;;24.35;12.35;;;;;;;;;;5022589;28;20029;-70
2022/03/09 02:47:40;;;;;;;25.02;13.10;;;;;;;;;;5020927;28;20393;-69
2022/03/09 02:50:06;;;;;;;27.30;13.77;;;;;;;;;;5023140;28;20234;-70
2022/03/09 02:52:31;;;;;;;28.08;13.27;;;;;;;;;;5021857;28;20029;-70
2022/03/09 02:54:56;;;;;;;20.63;12.73;;;;;;;;;;5005420;28;20237;-70
2022/03/09 02:57:22;;;;;;;21.73;12.43;;;;;;;;;;5003589;28;20161;-70
2022/03/09 02:59:49;;;;;;;22.27;12.73;;;;;;;;;;5022080;28;20317;-70
2022/03/09 03:02:14;;;;;;;47.88;21.08;;;;;;;;;;5023769;28;20036;-70
2022/03/09 03:04:40;;;;;;;39.42;17.77;;;;;;;;;;5021996;28;20171;-70
2022/03/09 03:07:08;;;;;;;37.80;16.02;;;;;;;;;;5009057;28;20136;-69
2022/03/09 03:09:36;;;;;;;32.70;16.33;;;;;;;;;;5022436;28;20033;-70
2022/03/09 03:12:01;;;;;;;27.05;14.35;;;;;;;;;;5005369;28;20034;-71
2022/03/09 03:14:29;;;;;;;23.33;12.90;;;;;;;;;;5022987;28;20476;-70
2022/03/09 03:16:57;;;;;;;24.63;12.43;;;;;;;;;;5036786;28;20040;-70
2022/03/09 03:19:22;;;;;;;26.13;12.65;;;;;;;;;;5022770;28;20037;-70
2022/03/09 03:21:50;;;;;;;27.02;12.43;;;;;;;;;;5022302;28;20033;-70
2022/03/09 03:24:16;;;;;;;22.00;13.15;;;;;;;;;;5022931;28;20160;-69
2022/03/09 03:26:45;;;;;;;31.05;15.82;;;;;;;;;;5004564;28;20233;-70
2022/03/09 03:29:10;;;;;;;38.28;17.52;;;;;;;;;;5022204;28;20391;-69
2022/03/09 03:31:38;;;;;;;30.42;14.57;;;;;;;;;;5022372;28;21805;-70
2022/03/09 03:34:05;;;;;;;34.08;15.10;;;;;;;;;;5003625;28;20041;-70
2022/03/09 03:36:30;;;;;;;29.00;14.50;;;;;;;;;;5021576;28;20438;-70
2022/03/09 03:38:56;;;;;;;25.27;12.82;;;;;;;;;;5026286;28;20021;-70
2022/03/09 03:41:21;;;;;;;24.83;12.70;;;;;;;;;;5026427;28;20045;-69
2022/03/09 03:43:46;;;;;;;23.08;12.75;;;;;;;;;;5009214;28;20085;-70
2022/03/09 03:46:15;;;;;;;27.60;12.30;;;;;;;;;;5024775;28;20036;-70
2022/03/09 03:48:40;;;;;;;21.73;11.00;;;;;;;;;;5025820;28;20033;-70
2022/03/09 03:51:06;;;;;;;22.90;12.60;;;;;;;;;;5025563;28;20025;-70
2022/03/09 03:53:32;;;;;;;30.80;14.57;;;;;;;;;;5026361;28;20021;-70
2022/03/09 03:55:58;;;;;;;23.77;12.90;;;;;;;;;;5024077;28;20120;-70
2022/03/09 03:58:23;;;;;;;30.30;14.30;;;;;;;;;;5024296;28;20063;-70
2022/03/09 04:00:49;;;;;;;24.75;13.48;;;;;;;;;;5025293;28;20036;-70
2022/03/09 04:03:14;;;;;;;23.00;12.20;;;;;;;;;;4991543;28;20480;-70
2022/03/09 04:05:40;;;;;;;23.27;12.60;;;;;;;;;;5026185;28;20067;-70
2022/03/09 04:08:08;;;;;;;24.77;12.45;;;;;;;;;;5025719;28;20083;-70
2022/03/09 04:10:33;;;;;;;26.55;13.45;;;;;;;;;;5022531;28;20123;-69
2022/03/09 04:13:03;;;;;;;29.42;13.80;;;;;;;;;;5038398;28;20041;-70
2022/03/09 04:15:32;;;;;;;20.38;12.27;;;;;;;;;;5026072;28;20035;-69
2022/03/09 04:17:57;;;;;;;20.45;12.40;;;;;;;;;;5039725;28;20252;-70
2022/03/09 04:20:23;;;;;;;21.20;11.50;;;;;;;;;;5025619;28;20032;-69
2022/03/09 04:22:48;;;;;;;17.95;11.25;;;;;;;;;;5025900;28;20040;-69
2022/03/09 04:25:15;;;;;;;21.80;10.95;;;;;;;;;;5025594;28;20064;-70
2022/03/09 04:27:41;;;;;;;21.88;12.02;;;;;;;;;;5025368;28;20033;-72
2022/03/09 04:30:07;;;;;;;24.27;12.48;;;;;;;;;;5024546;28;20037;-73
2022/03/09 04:32:34;;;;;;;23.65;13.15;;;;;;;;;;5024697;28;20020;-73
2022/03/09 04:35:01;;;;;;;26.10;12.57;;;;;;;;;;5024269;28;20507;-73
2022/03/09 04:37:30;;;;;;;27.15;12.23;;;;;;;;;;5025574;28;20036;-70
2022/03/09 04:39:56;;;;;;;21.73;12.18;;;;;;;;;;5023132;28;21943;-72
2022/03/09 04:42:21;;;;;;;20.17;11.70;;;;;;;;;;5024321;28;20194;-72
2022/03/09 04:44:47;;;;;;;17.67;11.15;;;;;;;;;;5023730;28;20047;-72
2022/03/09 04:47:14;;;;;;;19.98;11.07;;;;;;;;;;4990748;28;20562;-72
2022/03/09 04:49:39;;;;;;;24.63;13.35;;;;;;;;;;5023717;28;20090;-72
2022/03/09 04:52:05;;;;;;;27.05;12.93;;;;;;;;;;5038900;28;20504;-72
2022/03/09 04:54:34;;;;;;;21.45;11.80;;;;;;;;;;5024030;28;20033;-72
2022/03/09 04:56:59;;;;;;;24.85;12.30;;;;;;;;;;5024976;28;20170;-72
2022/03/09 04:59:24;;;;;;;18.45;10.82;;;;;;;;;;4985125;28;20343;-73
2022/03/09 05:01:50;;;;;;;23.25;12.13;;;;;;;;;;4985392;28;20172;-72
2022/03/09 05:04:15;;;;;;;20.27;11.55;;;;;;;;;;4999056;28;20033;-72
2022/03/09 05:06:41;;;;;;;20.98;11.75;;;;;;;;;;4984733;28;20095;-72
2022/03/09 05:09:08;;;;;;;23.17;13.50;;;;;;;;;;4984171;28;20174;-72
2022/03/09 05:11:33;;;;;;;27.73;13.95;;;;;;;;;;5000253;28;20038;-72
2022/03/09 05:13:59;;;;;;;27.15;13.95;;;;;;;;;;4986316;28;20084;-72
2022/03/09 05:16:24;;;;;;;22.27;12.82;;;;;;;;;;4985249;28;20117;-72
2022/03/09 05:18:52;;;;;;;21.88;12.35;;;;;;;;;;4983736;28;20030;-72
2022/03/09 05:21:20;;;;;;;21.35;11.93;;;;;;;;;;4983635;28;20079;-73
2022/03/09 05:23:45;;;;;;;20.08;11.07;;;;;;;;;;4984182;28;20022;-72
2022/03/09 05:26:11;;;;;;;21.55;11.07;;;;;;;;;;4982026;28;20029;-72
2022/03/09 05:28:36;;;;;;;21.17;11.40;;;;;;;;;;4985222;28;20149;-72
2022/03/09 05:31:02;;;;;;;26.33;13.25;;;;;;;;;;4980654;28;20844;-72
2022/03/09 05:33:28;;;;;;;28.63;13.57;;;;;;;;;;4984005;28;20312;-72
2022/03/09 05:35:55;;;;;;;23.73;12.57;;;;;;;;;;5000286;28;20030;-71
2022/03/09 05:38:21;;;;;;;21.02;11.82;;;;;;;;;;4981238;28;20029;-72
2022/03/09 05:40:46;;;;;;;22.05;11.25;;;;;;;;;;5000476;28;20032;-72
2022/03/09 05:43:11;;;;;;;22.95;11.30;;;;;;;;;;5001187;28;20454;-72
2022/03/09 05:45:37;;;;;;;28.02;13.10;;;;;;;;;;4985175;28;20029;-72
2022/03/09 05:48:02;;;;;;;23.92;12.10;;;;;;;;;;4965828;28;20169;-73
2022/03/09 05:50:28;;;;;;;29.65;14.02;;;;;;;;;;4980969;28;20121;-70
2022/03/09 05:52:53;;;;;;;26.73;12.65;;;;;;;;;;4984678;28;20087;-71
2022/03/09 05:55:21;;;;;;;26.48;12.63;;;;;;;;;;4984667;28;20049;-71
2022/03/09 05:57:47;;;;;;;23.00;12.40;;;;;;;;;;4992034;28;20608;-72
2022/03/09 06:00:12;;;;;;;23.50;12.18;;;;;;;;;;5003870;28;20120;-71
2022/03/09 06:02:38;;;;;;;24.40;11.80;;;;;;;;;;5002859;28;20273;-71
2022/03/09 06:05:06;;;;;;;29.48;12.48;;;;;;;;;;5007672;28;20700;-71
2022/03/09 06:07:32;;;;;;;27.83;12.77;;;;;;;;;;5023571;28;20029;-71
2022/03/09 06:09:58;;;;;;;31.75;15.65;;;;;;;;;;5023371;28;20208;-71
2022/03/09 06:12:23;;;;;;;34.10;13.73;;;;;;;;;;5021338;28;20028;-70
2022/03/09 06:14:49;;;;;;;24.40;13.00;;;;;;;;;;5003345;28;20029;-70
2022/03/09 06:17:14;;;;;;;27.88;13.27;;;;;;;;;;5007846;28;20064;-72
2022/03/09 06:19:40;;;;;;;24.60;13.20;;;;;;;;;;5023725;28;20017;-71
2022/03/09 06:22:05;;;;;;;23.40;12.63;;;;;;;;;;5022633;28;20340;-72
2022/03/09 06:24:34;;;;;;;22.38;12.30;;;;;;;;;;5023593;28;20077;-72
2022/03/09 06:26:59;;;;;;;30.08;14.20;;;;;;;;;;5024825;28;20033;-72
2022/03/09 06:29:24;;;;;;;32.10;15.00;;;;;;;;;;5009472;28;20025;-72
2022/03/09 06:31:52;;;;;;;39.45;16.20;;;;;;;;;;5024583;28;20500;-71
2022/03/09 06:34:18;;;;;;;28.05;14.20;;;;;;;;;;5023034;28;20032;-71
2022/03/09 06:36:46;;;;;;;25.80;12.80;;;;;;;;;;5022847;28;20140;-69
2022/03/09 06:39:15;;;;;;;26.85;12.93;;;;;;;;;;5038683;28;20032;-71
2022/03/09 06:41:42;;;;;;;27.13;14.15;;;;;;;;;;5023152;28;20025;-71
2022/03/09 06:44:07;;;;;;;27.90;12.80;;;;;;;;;;4988779;28;20028;-70
2022/03/09 06:46:35;;;;;;;23.50;12.88;;;;;;;;;;5035132;28;20021;-73
2022/03/09 06:49:00;;;;;;;21.25;11.95;;;;;;;;;;5007440;28;20059;-71
2022/03/09 06:51:30;;;;;;;27.70;13.15;;;;;;;;;;5003091;28;20043;-70
2022/03/09 06:53:56;;;;;;;26.83;11.93;;;;;;;;;;5020636;28;20017;-70
2022/03/09 06:56:26;;;;;;;21.10;12.73;;;;;;;;;;5005871;28;20021;-70
2022/03/09 06:58:52;;;;;;;24.45;12.27;;;;;;;;;;5003786;28;20053;-70
2022/03/09 07:01:17;;;;;;;21.33;12.02;;;;;;;;;;5021847;28;20044;-71
2022/03/09 07:03:42;;;;;;;24.70;12.43;;;;;;;;;;5003014;28;20037;-71
2022/03/09 07:06:08;;;;;;;23.73;12.25;;;;;;;;;;5021661;28;20060;-70
2022/03/09 07:08:33;;;;;;;22.23;12.02;;;;;;;;;;4987846;28;20331;-71
2022/03/09 07:10:59;;;;;;;23.20;11.93;;;;;;;;;;4999607;28;20646;-69
2022/03/09 07:13:25;;;;;;;19.20;12.20;;;;;;;;;;5012216;28;20038;-71
2022/03/09 07:15:50;;;;;;;24.25;12.85;;;;;;;;;;5019312;28;20029;-71
2022/03/09 07:18:16;;;;;;;26.95;13.18;;;;;;;;;;5018801;28;20065;-69
2022/03/09 07:20:41;;;;;;;29.75;12.77;;;;;;;;;;4988408;28;20041;-72
2022/03/09 07:23:09;;;;;;;29.92;13.15;;;;;;;;;;5003896;28;20029;-70
2022/03/09 07:25:34;;;;;;;30.58;14.75;;;;;;;;;;5007100;28;20530;-71
2022/03/09 07:28:00;;;;;;;27.95;13.02;;;;;;;;;;5004508;28;20130;-71
2022/03/09 07:30:26;;;;;;;27.02;14.63;;;;;;;;;;5007591;28;20033;-72
2022/03/09 07:32:51;;;;;;;27.55;14.68;;;;;;;;;;5028216;28;20476;-71
2022/03/09 07:35:16;;;;;;;29.98;14.63;;;;;;;;;;5022792;28;20033;-71
2022/03/09 07:37:44;;;;;;;25.42;12.35;;;;;;;;;;5007868;28;20295;-71
2022/03/09 07:40:09;;;;;;;23.67;12.60;;;;;;;;;;5008035;28;20163;-72
2022/03/09 07:42:35;;;;;;;23.17;12.38;;;;;;;;;;5025684;28;20021;-71
2022/03/09 07:45:06;;;;;;;24.40;12.30;;;;;;;;;;5023208;28;20528;-71
2022/03/09 07:47:34;;;;;;;22.83;12.57;;;;;;;;;;5005319;28;22284;-71
2022/03/09 07:50:00;;;;;;;28.25;14.55;;;;;;;;;;5026103;28;20029;-70
2022/03/09 07:52:28;;;;;;;26.25;13.40;;;;;;;;;;5009168;28;20512;-70
2022/03/09 07:58:23;;;;;;;25.65;12.98;;;;;;;;;;4940993;22;20111;-70
2022/03/09 08:00:48;;;;;;;21.33;11.73;;;;;;;;;;5018567;28;20052;-72
2022/03/09 08:03:14;;;;;;;21.42;13.07;;;;;;;;;;5020060;28;20254;-71
2022/03/09 08:05:39;;;;;;;22.08;13.50;;;;;;;;;;5019677;28;20171;-70
2022/03/09 08:08:04;;;;;;;27.38;14.93;;;;;;;;;;5020084;28;20367;-71
2022/03/09 08:10:30;;;;;;;24.42;13.10;;;;;;;;;;5001121;28;20040;-71
2022/03/09 08:12:56;;;;;;;24.05;13.20;;;;;;;;;;5018029;28;20041;-70
2022/03/09 08:15:21;;;;;;;28.95;14.90;;;;;;;;;;5034411;28;20757;-71
2022/03/09 08:17:49;;;;;;;25.83;15.25;;;;;;;;;;5018918;28;20037;-72
2022/03/09 08:20:14;;;;;;;22.25;13.80;;;;;;;;;;5020282;28;20116;-72
2022/03/09 08:22:41;;;;;;;23.70;13.25;;;;;;;;;;5018831;28;20044;-70
2022/03/09 08:25:09;;;;;;;22.00;13.27;;;;;;;;;;5018870;28;21852;-71
2022/03/09 08:27:37;;;;;;;17.80;12.52;;;;;;;;;;5019270;28;20183;-70
2022/03/09 08:30:04;;;;;;;19.95;12.55;;;;;;;;;;4995153;28;20033;-71
2022/03/09 08:32:29;;;;;;;25.33;15.50;;;;;;;;;;5019359;28;20120;-72
2022/03/09 08:34:54;;;;;;;22.23;13.43;;;;;;;;;;5017835;28;20028;-71
2022/03/09 08:37:22;;;;;;;28.60;15.05;;;;;;;;;;5015739;28;20025;-70
2022/03/09 08:39:50;;;;;;;26.55;13.68;;;;;;;;;;5018492;28;20032;-72
2022/03/09 08:42:18;;;;;;;21.08;12.73;;;;;;;;;;5031359;28;20021;-72
2022/03/09 08:44:43;;;;;;;22.92;13.35;;;;;;;;;;5009251;28;20175;-70
2022/03/09 08:47:09;;;;;;;21.17;13.80;;;;;;;;;;5014828;28;20493;-71
2022/03/09 08:49:39;;;;;;;26.50;13.50;;;;;;;;;;5017114;28;20125;-71
2022/03/09 08:52:06;;;;;;;19.67;14.15;;;;;;;;;;5017069;28;20021;-71
2022/03/09 08:54:31;;;;;;;30.65;18.23;;;;;;;;;;5017803;28;20033;-71
2022/03/09 08:56:59;;;;;;;29.85;16.27;;;;;;;;;;5015760;28;20099;-69
2022/03/09 08:59:24;;;;;;;22.70;13.25;;;;;;;;;;5017541;28;21029;-70
2022/03/09 09:01:49;;;;;;;24.58;14.20;;;;;;;;;;5014661;28;20044;-70
2022/03/09 09:04:16;;;;;;;25.90;15.32;;;;;;;;;;5009925;28;20614;-70
2022/03/09 09:06:46;;;;;;;23.98;14.55;;;;;;;;;;4993672;28;20204;-70
2022/03/09 09:09:11;;;;;;;25.45;15.32;;;;;;;;;;5015345;28;20029;-70
2022/03/09 09:11:39;;;;;;;28.33;15.73;;;;;;;;;;5009797;28;20457;-70
2022/03/09 09:14:05;;;;;;;23.67;14.45;;;;;;;;;;5018845;28;20110;-69
2022/03/09 09:16:31;;;;;;;28.83;15.63;;;;;;;;;;5018716;28;20091;-70
2022/03/09 09:18:59;;;;;;;27.10;15.35;;;;;;;;;;5018330;28;20531;-69
2022/03/09 09:21:26;;;;;;;26.55;13.75;;;;;;;;;;5019271;28;20029;-71
2022/03/09 09:23:55;;;;;;;23.80;13.90;;;;;;;;;;5019821;28;20140;-70
2022/03/09 09:26:20;;;;;;;24.05;13.40;;;;;;;;;;5018703;28;20037;-70
2022/03/09 09:28:50;;;;;;;24.00;14.23;;;;;;;;;;5012944;28;20071;-70
2022/03/09 09:31:16;;;;;;;24.13;14.07;;;;;;;;;;5018130;28;20678;-70
2022/03/09 09:33:43;;;;;;;27.42;13.80;;;;;;;;;;5018007;28;20532;-69
2022/03/09 09:36:11;;;;;;;23.35;14.70;;;;;;;;;;5017323;28;20030;-71
2022/03/09 09:38:36;;;;;;;23.70;14.30;;;;;;;;;;5017516;28;20041;-70
2022/03/09 09:41:01;;;;;;;28.23;15.35;;;;;;;;;;5017670;28;20068;-70
2022/03/09 09:43:30;;;;;;;26.38;15.23;;;;;;;;;;5019510;28;20036;-70
2022/03/09 09:45:58;;;;;;;24.95;15.85;;;;;;;;;;5010691;28;20028;-71
2022/03/09 09:48:24;;;;;;;24.30;14.88;;;;;;;;;;5017633;28;20033;-71
2022/03/09 09:50:54;;;;;;;25.42;14.43;;;;;;;;;;5019487;28;20144;-71
2022/03/09 09:53:22;;;;;;;24.17;15.65;;;;;;;;;;5034889;28;20430;-69
2022/03/09 09:55:48;;;;;;;27.90;15.38;;;;;;;;;;5020247;28;20700;-71
2022/03/09 09:58:14;;;;;;;30.40;15.88;;;;;;;;;;5018451;28;20053;-71
2022/03/09 10:00:39;;;;;;;30.75;16.02;;;;;;;;;;5034144;28;20033;-71
2022/03/09 10:03:06;;;;;;;30.60;17.35;;;;;;;;;;5016259;28;20467;-70
2022/03/09 10:05:32;;;;;;;27.55;16.45;;;;;;;;;;5034108;28;20219;-71
2022/03/09 10:08:03;;;;;;;28.83;17.33;;;;;;;;;;5018101;28;20155;-72
2022/03/09 10:10:38;;;;;;;29.38;16.73;;;;;;;;;;5018024;28;20101;-70
2022/03/09 10:13:21;;;;;;;32.00;16.83;;;;;;;;;;5017962;28;20047;-70
2022/03/09 10:15:47;;;;;;;28.77;16.38;;;;;;;;;;5017605;28;20033;-71
2022/03/09 10:18:17;;;;;;;29.63;16.48;;;;;;;;;;5018343;28;20088;-70
2022/03/09 10:20:42;;;;;;;28.17;16.30;;;;;;;;;;5016978;28;20629;-70
2022/03/09 10:23:11;;;;;;;33.22;15.68;;;;;;;;;;5032843;28;20094;-70
2022/03/09 10:25:40;;;;;;;32.25;16.63;;;;;;;;;;5017626;28;20388;-69
2022/03/09 10:28:07;;;;;;;30.40;17.50;;;;;;;;;;5018242;28;20535;-71
2022/03/09 10:30:37;;;;;;;32.35;17.08;;;;;;;;;;5018606;28;20073;-70
2022/03/09 10:33:07;;;;;;;30.30;17.42;;;;;;;;;;5018798;28;20067;-70
2022/03/09 10:35:32;;;;;;;32.08;16.42;;;;;;;;;;5036033;28;20562;-69
2022/03/09 10:38:01;;;;;;;28.83;17.13;;;;;;;;;;5020910;28;20025;-71
2022/03/09 10:40:27;;;;;;;28.27;17.70;;;;;;;;;;5014040;28;20240;-72
2022/03/09 10:43:08;;;;;;;35.65;19.30;;;;;;;;;;5012093;28;20370;-68
2022/03/09 10:45:36;;;;;;;30.52;17.75;;;;;;;;;;5015334;28;21260;-68
2022/03/09 10:48:03;;;;;;;32.67;18.88;;;;;;;;;;5015046;28;20028;-68
2022/03/09 10:50:29;;;;;;;32.25;18.63;;;;;;;;;;5014511;28;20434;-68
2022/03/09 10:53:03;;;;;;;29.88;18.73;;;;;;;;;;5015446;28;20112;-68
2022/03/09 10:55:36;;;;;;;28.52;17.67;;;;;;;;;;5015686;28;20070;-67
2022/03/09 10:58:06;;;;;;;31.02;19.13;;;;;;;;;;5014723;28;20266;-67
2022/03/09 11:00:42;;;;;;;32.95;19.13;;;;;;;;;;5015858;28;20051;-69
2022/03/09 11:03:12;;;;;;;32.13;17.83;;;;;;;;;;5014992;28;20037;-68
2022/03/09 11:05:47;;;;;;;36.58;21.40;;;;;;;;;;5015897;28;21983;-69
2022/03/09 11:08:12;;;;;;;29.45;19.30;;;;;;;;;;5007350;28;20491;-69
2022/03/09 11:10:38;;;;;;;53.42;21.60;;;;;;;;;;5015582;28;20021;-71
2022/03/09 11:13:03;;;;;;;39.83;20.20;;;;;;;;;;5008226;28;20308;-68
2022/03/09 11:15:31;;;;;;;37.22;20.95;;;;;;;;;;5013156;28;20033;-68
2022/03/09 11:17:56;;;;;;;30.65;19.50;;;;;;;;;;5013992;28;20518;-67
2022/03/09 11:20:22;;;;;;;31.95;19.10;;;;;;;;;;5008020;28;20048;-69
2022/03/09 11:22:47;;;;;;;44.25;23.10;;;;;;;;;;5009413;28;20067;-69
2022/03/09 11:25:13;;;;;;;36.88;21.58;;;;;;;;;;5013985;28;20029;-70
2022/03/09 11:27:46;;;;;;;39.40;22.10;;;;;;;;;;5016698;28;20171;-69
2022/03/09 11:30:28;;;;;;;32.80;20.30;;;;;;;;;;5014446;28;20467;-70
2022/03/09 11:32:55;;;;;;;32.90;21.23;;;;;;;;;;5015437;28;20033;-69
2022/03/09 11:35:30;;;;;;;35.10;20.60;;;;;;;;;;5008481;28;20248;-69
2022/03/09 11:37:59;;;;;;;32.10;19.67;;;;;;;;;;5013190;28;20039;-70
2022/03/09 11:40:25;;;;;;;34.30;20.27;;;;;;;;;;5015140;28;20026;-68
2022/03/09 11:42:51;;;;;;;37.05;20.27;;;;;;;;;;5013337;28;20114;-69
2022/03/09 11:45:16;;;;;;;31.13;19.95;;;;;;;;;;5014644;28;20092;-69
2022/03/09 11:48:09;;;;;;;38.75;21.15;;;;;;;;;;5028921;28;20032;-69
2022/03/09 11:51:04;;;;;;;33.50;20.27;;;;;;;;;;5013417;28;20094;-69
2022/03/09 11:53:39;;;;;;;39.55;20.55;;;;;;;;;;5012126;28;20095;-70
2022/03/09 11:56:21;;;;;;;34.15;19.77;;;;;;;;;;5014334;28;20039;-69
2022/03/09 11:59:06;;;;;;;36.38;19.88;;;;;;;;;;5013461;28;20626;-68
2022/03/09 12:01:33;;;;;;;34.60;19.60;;;;;;;;;;5017856;28;20501;-69
2022/03/09 12:03:59;;;;;;;29.92;19.30;;;;;;;;;;5016176;28;20032;-68
2022/03/09 12:06:40;;;;;;;33.30;20.23;;;;;;;;;;5018696;28;20029;-68
2022/03/09 12:09:05;;;;;;;36.33;21.63;;;;;;;;;;5017197;28;20036;-69
2022/03/09 12:11:30;;;;;;;32.17;19.73;;;;;;;;;;5018792;28;20033;-69
2022/03/09 12:13:56;;;;;;;32.28;20.88;;;;;;;;;;5015406;28;20093;-69
2022/03/09 12:16:26;;;;;;;34.72;20.77;;;;;;;;;;5014669;28;21903;-69
2022/03/09 12:19:00;;;;;;;31.95;18.67;;;;;;;;;;5016764;28;20029;-69
2022/03/09 12:21:25;;;;;;;33.05;19.48;;;;;;;;;;5017469;28;20033;-69
2022/03/09 12:24:00;;;;;;;34.15;20.70;;;;;;;;;;5016281;28;20052;-70
2022/03/09 12:27:03;;;;;;;36.25;20.55;;;;;;;;;;5017314;28;20536;-69
2022/03/09 12:29:30;;;;;;;34.47;20.23;;;;;;;;;;4982149;28;20058;-71
2022/03/09 12:32:07;;;;;;;32.05;19.48;;;;;;;;;;5008169;28;20043;-70
2022/03/09 12:34:35;;;;;;;33.70;20.75;;;;;;;;;;5018159;28;20025;-71
2022/03/09 12:37:03;;;;;;;36.22;21.05;;;;;;;;;;5016698;28;20035;-68
2022/03/09 12:39:29;;;;;;;33.75;19.98;;;;;;;;;;5016793;28;20036;-69
2022/03/09 12:41:56;;;;;;;33.28;20.80;;;;;;;;;;5016145;28;20037;-69
2022/03/09 12:44:22;;;;;;;33.03;19.52;;;;;;;;;;5017835;28;20659;-69
2022/03/09 12:46:50;;;;;;;28.30;18.33;;;;;;;;;;5016248;28;20532;-69
2022/03/09 12:49:22;;;;;;;32.90;20.13;;;;;;;;;;5015939;28;20333;-70
2022/03/09 12:51:50;;;;;;;33.80;20.20;;;;;;;;;;5018393;28;20021;-70
2022/03/09 12:54:31;;;;;;;31.52;20.00;;;;;;;;;;5015458;28;20048;-70
2022/03/09 12:57:04;;;;;;;33.05;20.13;;;;;;;;;;5017733;28;20131;-69
2022/03/09 12:59:29;;;;;;;36.40;20.23;;;;;;;;;;5027074;28;20071;-69
2022/03/09 13:01:55;;;;;;;35.15;20.52;;;;;;;;;;5016506;28;21910;-70
2022/03/09 13:04:22;;;;;;;36.22;20.02;;;;;;;;;;5031393;28;20559;-70
2022/03/09 13:06:47;;;;;;;38.83;21.83;;;;;;;;;;5018466;28;20163;-70
2022/03/09 13:09:23;;;;;;;39.38;23.13;;;;;;;;;;5010899;28;20029;-70
2022/03/09 13:11:48;;;;;;;30.98;18.73;;;;;;;;;;5014989;28;20067;-69
2022/03/09 13:14:15;;;;;;;32.90;19.70;;;;;;;;;;5016064;28;20182;-69
2022/03/09 13:16:41;;;;;;;32.38;20.30;;;;;;;;;;5022326;28;20116;-69
2022/03/09 13:19:09;;;;;;;31.85;19.83;;;;;;;;;;5016272;28;20061;-69
2022/03/09 13:21:34;;;;;;;42.13;24.67;;;;;;;;;;5015468;28;20144;-69
2022/03/09 13:24:00;;;;;;;33.85;20.60;;;;;;;;;;5011053;28;20483;-69
2022/03/09 13:26:27;;;;;;;36.20;21.00;;;;;;;;;;5031920;28;20021;-70
2022/03/09 13:29:02;;;;;;;36.70;20.75;;;;;;;;;;5024707;28;20143;-69
2022/03/09 13:31:41;;;;;;;31.92;19.92;;;;;;;;;;5014389;28;20356;-69
2022/03/09 13:34:23;;;;;;;34.20;21.38;;;;;;;;;;5010756;28;20057;-68
2022/03/09 13:36:58;;;;;;;35.88;20.80;;;;;;;;;;5015129;28;20028;-69
2022/03/09 13:39:23;;;;;;;32.60;19.15;;;;;;;;;;5016468;28;20033;-69
2022/03/09 13:41:49;;;;;;;34.28;20.38;;;;;;;;;;5014820;28;20029;-69
2022/03/09 13:44:28;;;;;;;35.58;20.40;;;;;;;;;;5014241;28;20107;-69
2022/03/09 13:47:06;;;;;;;33.42;20.40;;;;;;;;;;5014522;28;20049;-69
2022/03/09 13:49:42;;;;;;;38.40;22.77;;;;;;;;;;5016486;28;20173;-69
2022/03/09 13:52:23;;;;;;;43.28;23.58;;;;;;;;;;5008155;28;20132;-69
2022/03/09 13:54:49;;;;;;;48.30;24.87;;;;;;;;;;5014718;28;20021;-69
2022/03/09 13:57:28;;;;;;;33.90;20.73;;;;;;;;;;5014983;28;20510;-69
2022/03/09 13:59:53;;;;;;;42.13;22.45;;;;;;;;;;5013059;28;20041;-69
2022/03/09 14:02:22;;;;;;;34.25;20.92;;;;;;;;;;5029531;28;20129;-69
2022/03/09 14:04:48;;;;;;;33.42;19.95;;;;;;;;;;5015023;28;20025;-68
2022/03/09 14:07:15;;;;;;;34.35;20.67;;;;;;;;;;5016877;28;20093;-68
2022/03/09 14:09:41;;;;;;;33.20;19.48;;;;;;;;;;5015408;28;20037;-69
2022/03/09 14:12:16;;;;;;;32.72;20.75;;;;;;;;;;5017489;28;20033;-69
2022/03/09 14:14:41;;;;;;;38.70;22.02;;;;;;;;;;5014402;28;20116;-70
2022/03/09 14:17:08;;;;;;;38.70;21.85;;;;;;;;;;5014785;28;20029;-69
2022/03/09 14:19:33;;;;;;;34.03;21.27;;;;;;;;;;5013063;28;20403;-69
2022/03/09 14:21:58;;;;;;;35.28;21.73;;;;;;;;;;5014801;28;20025;-69
2022/03/09 14:24:23;;;;;;;38.47;22.25;;;;;;;;;;5014234;28;20618;-69